Time;durP1;ratioP1;P1;durP2;ratioP2;P2;SDS_P1;SDS_P2;PMS_P1;PMS_P2;Temp;Humidity;BMP_temperature;BMP_pressure;BME280_temperature;BME280_humidity;BME280_pressure;Samples;Min_cycle;Max_cycle;Signal;HPM_P1;HPM_P2
2023/04/12 00:02:07;;;;;;;0.50;0.50;;;;;;;11.29;69.21;95767.47;4963190;28;20152;-61
2023/04/12 00:04:34;;;;;;;0.50;0.50;;;;;;;11.33;68.31;95754.41;4977705;28;20054;-62
2023/04/12 00:07:01;;;;;;;0.50;0.50;;;;;;;11.15;68.59;95742.63;4963865;28;20058;-62
2023/04/12 00:09:29;;;;;;;0.50;0.50;;;;;;;11.23;68.93;95769.09;4961862;28;20141;-62
2023/04/12 00:12:00;;;;;;;0.50;0.50;;;;;;;11.11;69.38;95753.72;4963768;28;20054;-62
2023/04/12 00:14:27;;;;;;;0.50;0.50;;;;;;;11.21;69.55;95761.19;4964354;28;20109;-62
2023/04/12 00:16:54;;;;;;;0.50;0.50;;;;;;;11.30;69.40;95764.28;4964863;28;20090;-61
2023/04/12 00:19:24;;;;;;;0.50;0.50;;;;;;;11.26;68.87;95757.19;4964751;28;20055;-61
2023/04/12 00:21:51;;;;;;;0.52;0.52;;;;;;;11.30;68.96;95763.53;4964719;28;20062;-61
2023/04/12 00:24:18;;;;;;;0.50;0.50;;;;;;;11.16;69.14;95752.53;4964161;28;20062;-59
2023/04/12 00:26:44;;;;;;;0.60;0.60;;;;;;;10.70;69.52;95698.16;4964543;28;20137;-60
2023/04/12 00:29:11;;;;;;;0.50;0.50;;;;;;;10.58;69.79;95679.25;4964685;28;20051;-61
2023/04/12 00:31:38;;;;;;;0.50;0.50;;;;;;;11.18;69.82;95752.91;4963313;28;20129;-62
2023/04/12 00:34:04;;;;;;;0.50;0.50;;;;;;;11.21;68.59;95749.31;4979609;28;20061;-61
2023/04/12 00:36:31;;;;;;;0.50;0.50;;;;;;;11.34;68.16;95754.00;4964904;28;20050;-61
2023/04/12 00:38:58;;;;;;;0.50;0.50;;;;;;;10.88;67.49;95688.97;4965022;28;20141;-61
2023/04/12 00:41:26;;;;;;;0.60;0.60;;;;;;;11.50;67.58;95745.16;4965116;28;20062;-61
2023/04/12 00:43:52;;;;;;;0.50;0.50;;;;;;;11.55;66.90;95747.50;4964785;28;20054;-61
2023/04/12 00:46:19;;;;;;;0.60;0.60;;;;;;;11.40;67.46;95729.38;4965098;28;20125;-62
2023/04/12 00:48:47;;;;;;;0.50;0.50;;;;;;;11.24;67.14;95698.63;4965315;28;20054;-61
2023/04/12 00:51:16;;;;;;;0.50;0.50;;;;;;;11.48;67.23;95742.00;4964747;28;20590;-60
2023/04/12 00:53:44;;;;;;;0.50;0.50;;;;;;;11.32;67.96;95722.31;4964762;28;20054;-62
2023/04/12 00:56:10;;;;;;;0.50;0.50;;;;;;;11.44;68.00;95738.47;4965024;28;20047;-61
2023/04/12 00:58:37;;;;;;;0.50;0.50;;;;;;;11.46;67.59;95733.31;4964930;28;20098;-61
2023/04/12 01:01:04;;;;;;;0.50;0.50;;;;;;;11.41;68.11;95742.84;4963335;28;20050;-61
2023/04/12 01:03:31;;;;;;;0.50;0.50;;;;;;;11.36;67.68;95739.72;4963564;28;20046;-60
2023/04/12 01:06:20;;;;;;;0.50;0.50;;;;;;;11.25;68.17;95736.22;4963512;28;20530;-61
2023/04/12 01:09:10;;;;;;;0.45;0.45;;;;;;;11.25;67.65;95744.56;4963230;28;20105;-61
2023/04/12 01:12:15;;;;;;;0.50;0.50;;;;;;;11.29;67.86;95728.66;4964747;28;20046;-60
2023/04/12 01:15:02;;;;;;;0.50;0.50;;;;;;;11.25;68.67;95716.84;4964088;28;20594;-60
2023/04/12 01:17:36;;;;;;;0.50;0.50;;;;;;;11.11;68.45;95705.84;4966379;28;20115;-61
2023/04/12 01:20:12;;;;;;;0.50;0.50;;;;;;;10.85;68.70;95662.06;4966852;28;20051;-61
2023/04/12 01:22:42;;;;;;;0.60;0.60;;;;;;;11.32;68.63;95716.75;4967334;28;20064;-61
2023/04/12 01:25:15;;;;;;;0.50;0.50;;;;;;;11.33;68.51;95718.38;4967052;28;20054;-60
2023/04/12 01:27:45;;;;;;;;;;;;;;;11.33;68.21;95712.81;4967980;28;20066;-61
2023/04/12 01:30:16;;;;;;;0.50;0.50;;;;;;;11.11;69.30;95719.69;4968117;28;19969;-61
2023/04/12 01:32:50;;;;;;;0.50;0.50;;;;;;;11.15;69.66;95698.28;4968632;28;20062;-61
2023/04/12 01:35:20;;;;;;;0.50;0.50;;;;;;;11.15;68.96;95692.75;4967954;28;20512;-61
2023/04/12 01:37:47;;;;;;;0.50;0.50;;;;;;;11.02;68.67;95699.97;4967804;28;20662;-61
2023/04/12 01:40:14;;;;;;;0.50;0.50;;;;;;;11.27;68.35;95708.91;4967798;28;20092;-61
2023/04/12 01:42:41;;;;;;;0.50;0.50;;;;;;;10.63;68.97;95615.16;4968045;28;20493;-61
2023/04/12 01:45:08;;;;;;;0.47;0.47;;;;;;;11.33;68.49;95701.72;4966364;28;20078;-61
2023/04/12 01:47:34;;;;;;;0.50;0.50;;;;;;;11.27;68.30;95697.81;4966175;28;20050;-60
2023/04/12 01:50:26;;;;;;;0.50;0.50;;;;;;;11.36;68.15;95695.38;4967389;28;20070;-61
2023/04/12 01:53:03;;;;;;;0.55;0.55;;;;;;;11.31;67.61;95702.13;4967595;28;20058;-61
2023/04/12 01:55:31;;;;;;;0.50;0.50;;;;;;;11.31;67.87;95715.19;4982031;28;20081;-60
2023/04/12 01:58:00;;;;;;;0.50;0.50;;;;;;;11.38;67.52;95715.16;4967400;28;20058;-61
2023/04/12 02:00:28;;;;;;;0.50;0.50;;;;;;;10.95;69.12;95713.88;4965830;28;20524;-61
2023/04/12 02:02:56;;;;;;;0.50;0.50;;;;;;;10.82;69.56;95698.91;4967938;28;20085;-61
2023/04/12 02:05:23;;;;;;;0.50;0.50;;;;;;;11.08;69.65;95712.22;4967344;28;20121;-62
2023/04/12 02:07:50;;;;;;;0.50;0.50;;;;;;;11.05;70.11;95696.41;4967560;28;20051;-61
2023/04/12 02:10:29;;;;;;;0.50;0.50;;;;;;;11.20;69.63;95708.94;4967198;28;20062;-61
2023/04/12 02:13:00;;;;;;;0.50;0.50;;;;;;;11.38;67.82;95704.06;4968068;28;20062;-60
2023/04/12 02:15:28;;;;;;;0.50;0.50;;;;;;;11.28;66.91;95688.28;4967051;28;20058;-61
2023/04/12 02:17:55;;;;;;;0.50;0.50;;;;;;;11.03;66.44;95651.66;4967715;28;20133;-60
2023/04/12 02:20:23;;;;;;;0.50;0.50;;;;;;;11.57;65.88;95709.06;4967544;28;20051;-61
2023/04/12 02:22:50;;;;;;;0.50;0.50;;;;;;;11.60;65.21;95705.47;4967173;28;20380;-62
2023/04/12 02:25:19;;;;;;;0.50;0.50;;;;;;;11.66;64.84;95703.84;4965916;28;20055;-62
2023/04/12 02:27:47;;;;;;;0.50;0.50;;;;;;;11.75;64.65;95706.94;4967270;28;20343;-61
2023/04/12 02:30:14;;;;;;;0.50;0.50;;;;;;;11.80;64.06;95712.03;4964292;28;20532;-61
2023/04/12 02:32:44;;;;;;;0.50;0.50;;;;;;;11.12;63.52;95588.25;4964287;28;20061;-61
2023/04/12 02:35:12;;;;;;;0.60;0.60;;;;;;;11.30;63.93;95627.72;4965804;28;20255;-61
2023/04/12 02:37:39;;;;;;;0.50;0.50;;;;;;;11.87;63.42;95698.13;4964283;28;20121;-61
2023/04/12 02:40:09;;;;;;;0.52;0.52;;;;;;;11.82;63.59;95704.88;4966269;28;20121;-61
2023/04/12 02:42:35;;;;;;;0.50;0.50;;;;;;;11.72;64.55;95703.00;4967250;28;20948;-61
2023/04/12 02:45:03;;;;;;;0.50;0.50;;;;;;;11.77;63.81;95713.66;4966621;28;20520;-62
2023/04/12 02:47:30;;;;;;;0.50;0.50;;;;;;;11.22;63.56;95607.59;4967092;28;20049;-60
2023/04/12 02:49:57;;;;;;;0.50;0.50;;;;;;;11.79;63.54;95719.56;4970738;28;20046;-61
2023/04/12 02:52:23;;;;;;;0.50;0.50;;;;;;;11.41;63.46;95648.56;4986246;28;20074;-61
2023/04/12 02:54:51;;;;;;;0.50;0.50;;;;;;;11.69;64.70;95697.50;4985860;28;20689;-61
2023/04/12 02:57:19;;;;;;;0.50;0.50;;;;;;;11.75;64.78;95706.94;4966726;28;20098;-60
2023/04/12 02:59:47;;;;;;;0.50;0.50;;;;;;;11.75;65.08;95707.75;4966489;28;20404;-61
2023/04/12 03:02:14;;;;;;;0.50;0.50;;;;;;;11.75;65.32;95701.38;4966984;28;20141;-61
2023/04/12 03:04:45;;;;;;;0.50;0.50;;;;;;;11.67;66.20;95702.66;4966318;28;20054;-61
2023/04/12 03:07:12;;;;;;;0.50;0.50;;;;;;;11.78;66.40;95697.78;4966590;28;20058;-60
2023/04/12 03:09:41;;;;;;;0.60;0.60;;;;;;;11.82;65.97;95706.88;4965694;28;20129;-60
2023/04/12 03:12:08;;;;;;;0.57;0.57;;;;;;;11.85;66.03;95690.22;4964790;28;20251;-60
2023/04/12 03:14:35;;;;;;;0.50;0.50;;;;;;;11.85;66.52;95703.28;4966011;28;20089;-61
2023/04/12 03:17:01;;;;;;;0.50;0.50;;;;;;;11.77;66.89;95699.00;4964637;28;20074;-61
2023/04/12 03:19:31;;;;;;;0.50;0.50;;;;;;;11.26;66.86;95624.16;4966168;28;20055;-61
2023/04/12 03:21:58;;;;;;;0.60;0.60;;;;;;;11.80;67.69;95709.28;4965948;28;20055;-61
2023/04/12 03:24:25;;;;;;;0.50;0.50;;;;;;;11.87;66.58;95698.88;4965856;28;20050;-61
2023/04/12 03:26:52;;;;;;;0.50;0.50;;;;;;;11.74;65.26;95705.38;4966043;28;20046;-61
2023/04/12 03:29:19;;;;;;;0.50;0.50;;;;;;;11.78;63.22;95697.78;4965955;28;20054;-61
2023/04/12 03:31:45;;;;;;;0.50;0.50;;;;;;;11.51;62.11;95641.34;4965990;28;20129;-61
2023/04/12 03:34:12;;;;;;;0.60;0.60;;;;;;;11.86;61.56;95702.06;4963942;28;20063;-62
2023/04/12 03:36:40;;;;;;;0.50;0.50;;;;;;;11.86;60.51;95685.44;4965958;28;20046;-61
2023/04/12 03:39:07;;;;;;;0.52;0.52;;;;;;;11.81;60.73;95699.75;4964363;28;20546;-61
2023/04/12 03:41:33;;;;;;;0.52;0.52;;;;;;;11.90;60.62;95702.84;4965601;28;20200;-61
2023/04/12 03:44:00;;;;;;;0.60;0.60;;;;;;;11.83;60.87;95700.94;4965586;28;20054;-61
2023/04/12 03:46:26;;;;;;;0.50;0.50;;;;;;;11.78;61.48;95711.66;4965997;28;20069;-61
2023/04/12 03:48:53;;;;;;;0.50;0.50;;;;;;;11.37;61.47;95630.41;4965925;28;20046;-61
2023/04/12 03:51:21;;;;;;;0.50;0.50;;;;;;;11.80;61.54;95700.94;4965621;28;20432;-61
2023/04/12 03:53:47;;;;;;;0.50;0.50;;;;;;;11.81;61.52;95700.53;4965934;28;20580;-61
2023/04/12 03:56:14;;;;;;;0.50;0.50;;;;;;;11.90;61.11;95719.50;4973428;28;20062;-61
2023/04/12 03:58:41;;;;;;;0.50;0.50;;;;;;;11.06;61.05;95584.34;4983832;28;20082;-60
2023/04/12 04:01:08;;;;;;;0.50;0.50;;;;;;;11.77;61.31;95721.19;4976188;28;20435;-62
2023/04/12 04:03:34;;;;;;;0.60;0.60;;;;;;;11.65;61.37;95708.59;4965929;28;20259;-61
2023/04/12 04:06:02;;;;;;;0.50;0.50;;;;;;;11.71;61.55;95717.28;4965255;28;20058;-61
2023/04/12 04:08:31;;;;;;;0.50;0.50;;;;;;;11.81;61.74;95721.94;4963470;28;20059;-60
2023/04/12 04:10:59;;;;;;;0.50;0.50;;;;;;;11.83;60.29;95728.66;4964005;28;20445;-60
2023/04/12 04:13:25;;;;;;;0.60;0.60;;;;;;;11.33;59.75;95632.44;4965246;28;20089;-61
2023/04/12 04:16:03;;;;;;;0.50;0.50;;;;;;;11.99;59.84;95717.03;4965090;28;20843;-61
2023/04/12 04:18:31;;;;;;;0.60;0.60;;;;;;;11.75;60.44;95673.66;4965714;28;20054;-61
2023/04/12 04:20:58;;;;;;;0.50;0.50;;;;;;;12.01;61.09;95725.72;4965402;28;20084;-61
2023/04/12 04:23:27;;;;;;;0.50;0.50;;;;;;;12.08;58.61;95714.53;4965285;28;20128;-61
2023/04/12 04:25:54;;;;;;;0.60;0.60;;;;;;;11.79;59.68;95677.19;4965120;28;20082;-61
2023/04/12 04:28:21;;;;;;;0.50;0.50;;;;;;;11.94;57.81;95723.81;4965140;28;20126;-61
2023/04/12 04:30:50;;;;;;;0.50;0.50;;;;;;;12.17;56.51;95721.19;4964707;28;20086;-61
2023/04/12 04:33:18;;;;;;;0.50;0.50;;;;;;;12.03;58.10;95735.22;4963995;28;20055;-61
2023/04/12 04:35:45;;;;;;;0.52;0.52;;;;;;;12.27;58.10;95727.81;4963677;28;20480;-61
2023/04/12 04:38:12;;;;;;;0.60;0.60;;;;;;;12.22;57.56;95736.59;4963643;28;20078;-62
2023/04/12 04:40:38;;;;;;;0.57;0.57;;;;;;;12.19;57.03;95712.44;4963449;28;20050;-61
2023/04/12 04:43:05;;;;;;;0.50;0.50;;;;;;;12.28;56.68;95728.63;4965154;28;20110;-61
2023/04/12 04:45:35;;;;;;;0.50;0.50;;;;;;;12.31;58.18;95728.59;4964681;28;20461;-61
2023/04/12 04:48:02;;;;;;;0.52;0.52;;;;;;;12.27;58.59;95710.38;4971653;28;20145;-61
2023/04/12 04:50:29;;;;;;;0.50;0.50;;;;;;;11.71;57.60;95622.97;4984430;28;20050;-61
2023/04/12 04:52:55;;;;;;;0.50;0.50;;;;;;;12.23;56.65;95696.56;4987075;28;20058;-61
2023/04/12 04:55:26;;;;;;;0.50;0.50;;;;;;;12.43;57.88;95697.50;4988158;28;20086;-61
2023/04/12 04:57:52;;;;;;;0.50;0.50;;;;;;;12.08;56.75;95653.47;4988264;28;20058;-61
2023/04/12 05:00:20;;;;;;;0.50;0.50;;;;;;;12.48;56.07;95710.94;4986576;28;20057;-60
2023/04/12 05:02:47;;;;;;;0.50;0.50;;;;;;;12.36;56.52;95714.22;4988040;28;20057;-60
2023/04/12 05:05:14;;;;;;;0.50;0.50;;;;;;;12.45;55.83;95716.53;4987500;28;20627;-60
2023/04/12 05:07:44;;;;;;;0.52;0.52;;;;;;;12.56;56.02;95711.63;4987863;28;20050;-60
2023/04/12 05:10:11;;;;;;;0.50;0.50;;;;;;;12.51;57.51;95720.41;4986255;28;20287;-61
2023/04/12 05:12:37;;;;;;;0.50;0.50;;;;;;;12.63;58.34;95722.66;4988115;28;20112;-60
2023/04/12 05:15:05;;;;;;;0.50;0.50;;;;;;;12.67;58.55;95717.84;4988254;28;20050;-60
2023/04/12 05:17:37;;;;;;;0.60;0.60;;;;;;;12.49;58.54;95729.16;4986856;28;20058;-60
2023/04/12 05:20:06;;;;;;;0.50;0.50;;;;;;;12.14;57.71;95679.56;4987664;28;20109;-60
2023/04/12 05:22:34;;;;;;;0.50;0.50;;;;;;;12.27;57.91;95715.91;4988105;28;20367;-61
2023/04/12 05:25:02;;;;;;;0.50;0.50;;;;;;;12.41;59.31;95733.22;4987509;28;20046;-59
2023/04/12 05:27:29;;;;;;;0.57;0.57;;;;;;;12.37;57.03;95738.03;4986349;28;20050;-60
2023/04/12 05:29:57;;;;;;;0.50;0.50;;;;;;;12.28;57.27;95706.41;4986319;28;20532;-61
2023/04/12 05:32:24;;;;;;;0.57;0.57;;;;;;;12.19;57.97;95742.97;4987796;28;20406;-60
2023/04/12 05:34:51;;;;;;;0.60;0.60;;;;;;;12.04;58.15;95713.81;4985876;28;20061;-60
2023/04/12 05:37:18;;;;;;;0.60;0.60;;;;;;;12.11;58.55;95719.25;4987502;28;20060;-61
2023/04/12 05:39:44;;;;;;;0.50;0.50;;;;;;;11.96;58.85;95703.97;4987303;28;20144;-61
2023/04/12 05:42:11;;;;;;;0.50;0.50;;;;;;;12.19;57.98;95720.78;4987464;28;20050;-60
2023/04/12 05:44:38;;;;;;;0.50;0.50;;;;;;;12.10;57.09;95701.03;4987156;28;20105;-67
2023/04/12 05:47:04;;;;;;;0.50;0.50;;;;;;;12.22;57.07;95703.28;4980666;28;20054;-58
2023/04/12 05:49:31;;;;;;;0.50;0.50;;;;;;;12.02;56.48;95666.25;4981271;28;20705;-64
2023/04/12 05:51:58;;;;;;;0.57;0.57;;;;;;;12.55;55.95;95743.41;4968317;28;20054;-60
2023/04/12 05:54:25;;;;;;;0.50;0.50;;;;;;;10.91;55.71;95505.34;4967348;28;20133;-58
2023/04/12 05:56:55;;;;;;;0.50;0.50;;;;;;;12.45;56.19;95753.41;4967978;28;20367;-57
2023/04/12 05:59:21;;;;;;;0.50;0.50;;;;;;;11.92;55.64;95620.75;4965427;28;20054;-59
2023/04/12 06:01:48;;;;;;;0.60;0.60;;;;;;;12.75;55.52;95736.78;4967486;28;20057;-56
2023/04/12 06:04:15;;;;;;;0.50;0.50;;;;;;;12.80;56.14;95739.13;4966176;28;20058;-63
2023/04/12 06:06:42;;;;;;;0.52;0.52;;;;;;;12.49;56.23;95670.84;4966804;28;20145;-61
2023/04/12 06:09:09;;;;;;;0.50;0.50;;;;;;;12.07;56.02;95597.22;4966717;28;20127;-57
2023/04/12 06:11:37;;;;;;;0.50;0.50;;;;;;;12.96;56.56;95724.63;4985786;28;20432;-62
2023/04/12 06:14:05;;;;;;;0.50;0.50;;;;;;;12.85;56.26;95716.41;4986276;28;20046;-56
2023/04/12 06:16:31;;;;;;;0.50;0.50;;;;;;;12.06;56.21;95600.41;4986610;28;20069;-57
2023/04/12 06:18:58;;;;;;;0.50;0.50;;;;;;;12.49;55.54;95659.72;4973025;28;20046;-61
2023/04/12 06:21:25;;;;;;;0.60;0.60;;;;;;;12.93;55.03;95729.00;4981535;28;20047;-60
2023/04/12 06:23:52;;;;;;;0.50;0.50;;;;;;;12.32;56.14;95634.97;4981066;28;20042;-60
2023/04/12 06:26:19;;;;;;;0.57;0.57;;;;;;;13.01;56.26;95736.06;4986192;28;20054;-60
2023/04/12 06:28:46;;;;;;;0.50;0.50;;;;;;;12.67;56.14;95679.75;4974024;28;20500;-64
2023/04/12 06:31:15;;;;;;;0.50;0.50;;;;;;;12.92;56.49;95730.22;4975727;28;20059;-59
2023/04/12 06:33:42;;;;;;;0.60;0.60;;;;;;;12.81;56.90;95729.56;4967318;28;20129;-59
2023/04/12 06:36:10;;;;;;;0.60;0.60;;;;;;;12.75;56.80;95731.25;4970276;28;20195;-59
2023/04/12 06:38:37;;;;;;;0.57;0.57;;;;;;;12.07;56.34;95638.03;4973919;28;20050;-63
2023/04/12 06:41:05;;;;;;;0.50;0.50;;;;;;;10.91;56.14;95436.88;4985487;28;20525;-57
2023/04/12 06:43:32;;;;;;;0.50;0.50;;;;;;;12.39;55.88;95659.88;4977997;28;20050;-57
2023/04/12 06:46:01;;;;;;;0.50;0.50;;;;;;;12.79;56.01;95712.50;4968420;28;20060;-58
2023/04/12 06:48:28;;;;;;;0.52;0.52;;;;;;;12.76;56.03;95705.00;4973239;28;20611;-61
2023/04/12 06:50:55;;;;;;;0.50;0.50;;;;;;;11.49;56.54;95499.59;4982284;28;20046;-61
2023/04/12 06:53:22;;;;;;;0.60;0.60;;;;;;;12.84;55.47;95731.50;4976626;28;20059;-70
2023/04/12 06:55:48;;;;;;;0.50;0.50;;;;;;;12.73;57.11;95728.06;4977910;28;20054;-59
2023/04/12 06:58:15;;;;;;;0.50;0.50;;;;;;;12.65;57.50;95798.03;4966603;28;20125;-58
2023/04/12 07:00:42;;;;;;;0.60;0.60;;;;;;;12.64;57.33;95724.22;4966400;28;20062;-69
2023/04/12 07:03:09;;;;;;;0.60;0.60;;;;;;;12.71;57.39;95711.03;4981256;28;20058;-69
2023/04/12 07:05:38;;;;;;;0.50;0.50;;;;;;;12.61;55.75;95711.97;4966379;28;20055;-69
2023/04/12 07:08:05;;;;;;;0.60;0.60;;;;;;;12.65;56.99;95721.03;4971738;28;20432;-60
2023/04/12 07:10:34;;;;;;;0.50;0.50;;;;;;;12.63;56.84;95728.97;4974672;28;20042;-60
2023/04/12 07:13:05;;;;;;;0.60;0.60;;;;;;;11.76;56.75;95609.44;4973251;28;20066;-61
2023/04/12 07:15:32;;;;;;;0.60;0.60;;;;;;;12.56;57.75;95733.84;4973809;28;21330;-60
2023/04/12 07:17:59;;;;;;;0.50;0.50;;;;;;;12.52;56.70;95733.88;4969449;28;20050;-59
2023/04/12 07:20:26;;;;;;;0.50;0.50;;;;;;;12.47;57.99;95748.22;4966035;28;20202;-68
2023/04/12 07:22:52;;;;;;;0.50;0.50;;;;;;;12.30;59.94;95742.88;4963716;28;20051;-67
2023/04/12 07:25:19;;;;;;;0.50;0.50;;;;;;;11.99;62.90;95758.66;4964347;28;20142;-69
2023/04/12 07:27:46;;;;;;;0.55;0.55;;;;;;;11.66;65.59;95759.34;4964375;28;20102;-69
2023/04/12 07:30:14;;;;;;;0.50;0.50;;;;;;;11.38;67.51;95781.69;4965793;28;20051;-69
2023/04/12 07:32:40;;;;;;;0.50;0.50;;;;;;;10.89;68.95;95732.09;4965985;28;20051;-69
2023/04/12 07:35:07;;;;;;;0.50;0.50;;;;;;;11.19;67.02;95773.91;4965613;28;20062;-57
2023/04/12 07:37:34;;;;;;;0.50;0.50;;;;;;;11.07;69.04;95766.81;4963960;28;20129;-59
2023/04/12 07:40:01;;;;;;;0.47;0.47;;;;;;;10.85;69.75;95753.47;4966650;28;20061;-66
2023/04/12 07:42:28;;;;;;;0.50;0.50;;;;;;;10.82;69.41;95754.28;4981590;28;20050;-69
2023/04/12 07:44:54;;;;;;;0.47;0.47;;;;;;;10.83;70.40;95744.81;4982676;28;20521;-67
2023/04/12 07:47:21;;;;;;;0.40;0.40;;;;;;;10.57;68.78;95721.94;4968148;28;20101;-63
2023/04/12 07:49:48;;;;;;;0.40;0.40;;;;;;;11.18;68.97;95780.59;4964146;28;20058;-61
2023/04/12 07:52:14;;;;;;;0.50;0.50;;;;;;;10.90;68.00;95711.50;4977391;28;20077;-57
2023/04/12 07:54:41;;;;;;;0.50;0.50;;;;;;;11.32;67.93;95750.81;4978839;28;20050;-65
2023/04/12 07:57:08;;;;;;;0.50;0.50;;;;;;;11.50;66.69;95734.88;4969199;28;20433;-60
2023/04/12 07:59:35;;;;;;;0.50;0.50;;;;;;;11.94;66.02;95775.72;4965539;28;20533;-68
2023/04/12 08:02:02;;;;;;;0.55;0.55;;;;;;;11.85;63.46;95740.16;4966177;28;20122;-56
2023/04/12 08:04:29;;;;;;;0.50;0.50;;;;;;;12.12;62.78;95712.53;4979761;28;20082;-70
2023/04/12 08:06:56;;;;;;;0.60;0.60;;;;;;;12.05;60.41;95698.72;4982142;28;20054;-66
2023/04/12 08:09:23;;;;;;;0.50;0.50;;;;;;;12.11;61.92;95694.28;4966244;28;20051;-59
2023/04/12 08:11:50;;;;;;;0.50;0.50;;;;;;;12.80;61.32;95761.34;4969210;28;20054;-58
2023/04/12 08:14:17;;;;;;;0.60;0.60;;;;;;;12.44;59.53;95676.84;4968454;28;20482;-63
2023/04/12 08:16:43;;;;;;;0.60;0.60;;;;;;;12.85;56.71;95696.19;4966399;28;20051;-69
2023/04/12 08:19:10;;;;;;;0.52;0.52;;;;;;;12.41;56.11;95633.25;4965201;28;20046;-59
2023/04/12 08:21:37;;;;;;;0.50;0.50;;;;;;;12.97;54.67;95753.97;4968893;28;20082;-64
2023/04/12 08:24:04;;;;;;;0.50;0.50;;;;;;;12.17;54.90;95623.25;4967796;28;20108;-58
2023/04/12 08:26:30;;;;;;;0.50;0.50;;;;;;;13.19;55.27;95767.22;4973748;28;20055;-57
2023/04/12 08:28:57;;;;;;;0.60;0.60;;;;;;;13.00;53.96;95742.84;4975742;28;20046;-57
2023/04/12 08:31:24;;;;;;;0.50;0.50;;;;;;;12.09;53.04;95605.13;4969558;28;20054;-67
2023/04/12 08:33:51;;;;;;;0.60;0.60;;;;;;;12.58;53.03;95665.59;4969305;28;20179;-63
2023/04/12 08:36:18;;;;;;;0.60;0.60;;;;;;;13.17;52.57;95769.63;4976222;28;20078;-62
2023/04/12 08:38:45;;;;;;;0.50;0.50;;;;;;;13.11;53.01;95749.03;4983261;28;20077;-64
2023/04/12 08:41:12;;;;;;;0.60;0.60;;;;;;;11.81;52.22;95527.75;4987535;28;20050;-67
2023/04/12 08:43:44;;;;;;;0.60;0.60;;;;;;;13.40;52.21;95766.88;4978174;28;20049;-58
2023/04/12 08:46:14;;;;;;;0.50;0.50;;;;;;;13.35;52.32;95764.59;4968907;28;20109;-59
2023/04/12 08:48:46;;;;;;;0.55;0.55;;;;;;;13.51;51.15;95761.97;4969497;28;20057;-68
2023/04/12 08:51:18;;;;;;;0.60;0.60;;;;;;;13.45;50.96;95760.84;4971499;28;20054;-58
2023/04/12 08:53:44;;;;;;;0.50;0.50;;;;;;;13.14;50.28;95703.72;4986295;28;20076;-69
2023/04/12 08:56:12;;;;;;;0.60;0.60;;;;;;;13.47;49.56;95769.56;4982390;28;20046;-66
2023/04/12 08:58:41;;;;;;;0.60;0.60;;;;;;;13.35;48.81;95770.16;4976263;28;20055;-57
2023/04/12 09:01:14;;;;;;;0.60;0.60;;;;;;;13.32;49.11;95759.88;4969238;28;20117;-63
2023/04/12 09:03:42;;;;;;;0.60;0.60;;;;;;;13.15;48.90;95738.66;4975809;28;20119;-66
2023/04/12 09:06:10;;;;;;;0.50;0.50;;;;;;;12.98;48.29;95738.84;4987615;28;20481;-57
2023/04/12 09:08:53;;;;;;;0.60;0.60;;;;;;;13.11;47.73;95737.94;4975025;28;20047;-63
2023/04/12 09:11:24;;;;;;;0.60;0.60;;;;;;;13.03;47.99;95753.13;4968505;28;20079;-64
2023/04/12 09:13:53;;;;;;;0.60;0.60;;;;;;;12.53;47.24;95712.47;4975212;28;20073;-59
2023/04/12 09:16:37;;;;;;;0.60;0.60;;;;;;;13.05;48.38;95763.81;4982789;28;20062;-61
2023/04/12 09:19:05;;;;;;;0.57;0.57;;;;;;;12.30;47.91;95640.94;4987840;28;20522;-58
2023/04/12 09:21:36;;;;;;;0.55;0.55;;;;;;;12.98;47.27;95745.22;4979378;28;20593;-65
2023/04/12 09:24:09;;;;;;;0.52;0.52;;;;;;;13.07;46.48;95762.19;4968251;28;20047;-71
2023/04/12 09:26:40;;;;;;;0.50;0.50;;;;;;;13.17;47.14;95780.72;4967705;28;20113;-59
2023/04/12 09:29:21;;;;;;;0.52;0.52;;;;;;;12.83;47.06;95749.41;4978537;28;20524;-66
2023/04/12 09:32:15;;;;;;;0.52;0.52;;;;;;;13.05;44.95;95784.09;4968322;28;20136;-63
2023/04/12 09:34:55;;;;;;;0.60;0.60;;;;;;;12.63;44.80;95712.31;4970337;28;20516;-59
2023/04/12 09:37:22;;;;;;;0.60;0.60;;;;;;;12.84;44.10;95711.25;4982436;28;20108;-63
2023/04/12 09:40:04;;;;;;;0.60;0.60;;;;;;;13.15;43.68;95760.91;4971578;28;20062;-58
2023/04/12 09:42:33;;;;;;;0.50;0.50;;;;;;;13.18;43.20;95768.41;4968968;28;20125;-62
2023/04/12 09:45:19;;;;;;;0.60;0.60;;;;;;;13.00;43.32;95692.81;4986460;28;20050;-57
2023/04/12 09:47:45;;;;;;;0.70;0.70;;;;;;;13.76;43.22;95749.66;4985530;28;20093;-69
2023/04/12 09:50:21;;;;;;;0.60;0.60;;;;;;;14.17;42.49;95748.16;4987056;28;20120;-57
2023/04/12 09:52:49;;;;;;;0.68;0.68;;;;;;;14.22;41.76;95710.69;4987124;28;20140;-57
2023/04/12 09:55:16;;;;;;;0.60;0.60;;;;;;;14.39;41.46;95681.72;4987173;28;20097;-57
2023/04/12 09:57:44;;;;;;;0.60;0.60;;;;;;;14.80;40.30;95729.47;4987375;28;20050;-57
2023/04/12 10:00:15;;;;;;;0.60;0.60;;;;;;;14.93;39.57;95728.38;4987133;28;20062;-59
2023/04/12 10:02:46;;;;;;;0.68;0.68;;;;;;;15.14;40.16;95724.34;4987268;28;20493;-56
2023/04/12 10:05:17;;;;;;;0.60;0.60;;;;;;;14.88;41.46;95717.75;4986927;28;20054;-69
2023/04/12 10:07:45;;;;;;;0.60;0.60;;;;;;;14.99;40.14;95714.72;4986344;28;20050;-66
2023/04/12 10:10:16;;;;;;;0.70;0.70;;;;;;;15.09;40.49;95711.69;4986040;28;20061;-67
2023/04/12 10:12:45;;;;;;;0.63;0.63;;;;;;;14.84;40.29;95660.50;4985591;28;20599;-57
2023/04/12 10:15:16;;;;;;;0.60;0.60;;;;;;;15.37;39.69;95721.44;4986675;28;20136;-58
2023/04/12 10:17:51;;;;;;;0.68;0.68;;;;;;;15.46;40.14;95720.88;4987257;28;20058;-58
2023/04/12 10:20:20;;;;;;;0.60;0.60;;;;;;;15.19;39.12;95698.72;4992810;28;20081;-58
2023/04/12 10:22:48;;;;;;;0.70;0.70;;;;;;;15.27;39.48;95707.75;4983143;28;20058;-68
2023/04/12 10:25:19;;;;;;;0.60;0.60;;;;;;;15.16;39.96;95713.53;4969568;28;20121;-59
2023/04/12 10:27:46;;;;;;;0.60;0.60;;;;;;;15.33;40.12;95722.75;4961207;28;20126;-58
2023/04/12 10:30:30;;;;;;;0.70;0.70;;;;;;;15.81;39.67;95698.47;4957599;28;20051;-57
2023/04/12 10:33:03;;;;;;;;;;;;;;;16.24;38.73;95704.53;4952561;28;20051;-69
2023/04/12 10:36:02;;;;;;;0.60;0.60;;;;;;;16.06;38.65;95707.00;4964425;28;20216;-71
2023/04/12 10:38:47;;;;;;;0.65;0.65;;;;;;;16.35;37.80;95705.03;4952590;28;20138;-66
2023/04/12 10:41:20;;;;;;;0.80;0.80;;;;;;;16.63;38.36;95708.31;4969438;28;20047;-58
2023/04/12 10:43:48;;;;;;;0.80;0.80;;;;;;;16.37;36.17;95640.31;4964504;28;20062;-68
2023/04/12 10:46:37;;;;;;;0.70;0.70;;;;;;;16.92;36.73;95703.47;4958311;28;20051;-67
2023/04/12 10:49:11;;;;;;;0.80;0.80;;;;;;;16.58;36.08;95668.47;4958137;28;20137;-60
2023/04/12 10:51:38;;;;;;;0.80;0.80;;;;;;;16.89;36.83;95716.34;4960872;28;20046;-65
2023/04/12 10:54:17;;;;;;;0.70;0.70;;;;;;;17.12;36.56;95696.47;4955288;28;20047;-61
2023/04/12 10:56:48;;;;;;;0.70;0.70;;;;;;;17.17;35.64;95686.72;4947963;28;20153;-59
2023/04/12 10:59:15;;;;;;;0.80;0.80;;;;;;;14.96;35.68;95386.56;4950411;28;20062;-58
2023/04/12 11:02:10;;;;;;;0.80;0.80;;;;;;;17.28;34.47;95692.78;4953015;28;20090;-67
2023/04/12 11:04:37;;;;;;;0.85;0.85;;;;;;;17.19;33.95;95684.28;4965318;28;20130;-65
2023/04/12 11:07:10;;;;;;;0.70;0.70;;;;;;;16.73;33.74;95652.09;4965238;28;20058;-59
2023/04/12 11:09:44;;;;;;;0.80;0.80;;;;;;;16.92;34.24;95720.25;4950638;28;20051;-67
2023/04/12 11:12:12;;;;;;;;;;;;;;;16.94;34.80;95689.81;4959875;28;20057;-67
2023/04/12 11:14:46;;;;;;;0.70;0.70;;;;;;;17.16;35.12;95690.75;4965779;28;19973;-63
2023/04/12 11:17:13;;;;;;;0.80;0.80;;;;;;;17.10;33.90;95664.56;4953946;28;20055;-61
2023/04/12 11:19:48;;;;;;;0.82;0.82;;;;;;;17.55;33.58;95691.16;4949446;28;20513;-68
2023/04/12 11:22:18;;;;;;;0.70;0.70;;;;;;;15.87;32.90;95417.47;4957350;28;20051;-70
2023/04/12 11:24:50;;;;;;;0.80;0.80;;;;;;;17.67;34.83;95675.59;4964177;28;20046;-57
2023/04/12 11:27:19;;;;;;;0.75;0.75;;;;;;;17.70;32.66;95699.91;4965933;28;20051;-57
2023/04/12 11:29:56;;;;;;;0.88;0.88;;;;;;;18.00;33.94;95699.28;4958567;28;20055;-57
2023/04/12 11:32:26;;;;;;;0.80;0.80;;;;;;;18.00;33.28;95700.06;4948429;28;20696;-65
2023/04/12 11:34:55;;;;;;;0.80;0.80;;;;;;;17.72;33.05;95628.19;4964285;28;20576;-67
2023/04/12 11:37:23;;;;;;;0.77;0.77;;;;;;;17.98;32.55;95704.56;4967130;28;20133;-67
2023/04/12 11:39:52;;;;;;;0.75;0.75;;;;;;;17.97;32.54;95684.16;4947737;28;20618;-59
2023/04/12 11:42:22;;;;;;;0.70;0.70;;;;;;;17.97;33.56;95703.00;4954663;28;20051;-67
2023/04/12 11:44:50;;;;;;;0.80;0.80;;;;;;;18.15;33.73;95661.13;4949189;28;20086;-58